Time;durP1;ratioP1;P1;durP2;ratioP2;P2;SDS_P1;SDS_P2;PMS_P1;PMS_P2;Temp;Humidity;BMP_temperature;BMP_pressure;BME280_temperature;BME280_humidity;BME280_pressure;Samples;Min_cycle;Max_cycle;Signal;HPM_P1;HPM_P2
2021/09/25 00:02:17;;;;;;;8.73;5.57;;;;;;;;;;5052783;28;20020;-67
2021/09/25 00:04:42;;;;;;;9.98;6.28;;;;;;;;;;5057740;28;20036;-67
2021/09/25 00:07:07;;;;;;;8.68;5.80;;;;;;;;;;5056746;28;20028;-66
2021/09/25 00:09:33;;;;;;;7.70;5.90;;;;;;;;;;5053863;28;20025;-67
2021/09/25 00:11:58;;;;;;;10.57;5.85;;;;;;;;;;5048753;28;20503;-67
2021/09/25 00:14:23;;;;;;;7.88;5.97;;;;;;;;;;5054997;28;20103;-67
2021/09/25 00:16:48;;;;;;;8.17;6.30;;;;;;;;;;5053642;28;20552;-67
2021/09/25 00:19:13;;;;;;;8.32;5.85;;;;;;;;;;5050484;28;20276;-67
2021/09/25 00:21:39;;;;;;;7.75;5.78;;;;;;;;;;5051702;28;20021;-66
2021/09/25 00:24:05;;;;;;;10.60;7.38;;;;;;;;;;5066717;28;20043;-67
2021/09/25 00:26:30;;;;;;;9.70;6.63;;;;;;;;;;5053787;28;20025;-67
2021/09/25 00:28:55;;;;;;;9.73;6.28;;;;;;;;;;5061186;28;20195;-68
2021/09/25 00:31:20;;;;;;;8.65;6.45;;;;;;;;;;5057398;28;20020;-67
2021/09/25 00:33:46;;;;;;;8.98;6.82;;;;;;;;;;5055643;28;20025;-67
2021/09/25 00:36:11;;;;;;;9.07;6.60;;;;;;;;;;5049631;28;20375;-66
2021/09/25 00:38:36;;;;;;;8.95;6.70;;;;;;;;;;5052550;28;20483;-66
2021/09/25 00:41:02;;;;;;;8.05;6.63;;;;;;;;;;5051345;28;20025;-67
2021/09/25 00:43:28;;;;;;;10.93;7.10;;;;;;;;;;5058120;28;20031;-65
2021/09/25 00:45:53;;;;;;;10.35;6.65;;;;;;;;;;5056479;28;20024;-67
2021/09/25 00:48:18;;;;;;;9.07;6.57;;;;;;;;;;5052718;28;20101;-67
2021/09/25 00:50:43;;;;;;;9.18;6.78;;;;;;;;;;5053367;28;20045;-66
2021/09/25 00:53:08;;;;;;;8.93;6.80;;;;;;;;;;5051697;28;20072;-68
2021/09/25 00:55:34;;;;;;;8.73;6.00;;;;;;;;;;5054136;28;20472;-67
2021/09/25 00:58:01;;;;;;;8.63;6.35;;;;;;;;;;5054182;28;20078;-67
2021/09/25 01:00:26;;;;;;;8.18;5.90;;;;;;;;;;5055969;28;20054;-69
2021/09/25 01:02:51;;;;;;;7.93;5.78;;;;;;;;;;5052485;28;20025;-67
2021/09/25 01:05:17;;;;;;;9.27;6.43;;;;;;;;;;5061563;28;20017;-67
2021/09/25 01:07:42;;;;;;;8.35;6.20;;;;;;;;;;5051838;28;20104;-67
2021/09/25 01:10:08;;;;;;;7.03;5.93;;;;;;;;;;5061677;28;20163;-67
2021/09/25 01:12:33;;;;;;;8.50;6.20;;;;;;;;;;5059497;28;20078;-69
2021/09/25 01:14:58;;;;;;;8.15;5.82;;;;;;;;;;5064797;28;20021;-68
2021/09/25 01:17:24;;;;;;;8.55;6.28;;;;;;;;;;5052713;28;20037;-67
2021/09/25 01:19:49;;;;;;;7.93;6.00;;;;;;;;;;5060896;28;20025;-67
2021/09/25 01:22:15;;;;;;;8.38;6.80;;;;;;;;;;5062669;28;20099;-67
2021/09/25 01:24:40;;;;;;;8.57;6.60;;;;;;;;;;5056554;28;20036;-67
2021/09/25 01:27:05;;;;;;;8.68;6.30;;;;;;;;;;5058136;28;20056;-67
2021/09/25 01:29:31;;;;;;;7.22;5.30;;;;;;;;;;5066134;28;20017;-67
2021/09/25 01:31:57;;;;;;;10.52;6.65;;;;;;;;;;5066726;28;20025;-66
2021/09/25 01:34:22;;;;;;;9.93;6.03;;;;;;;;;;5060417;28;20028;-68
2021/09/25 01:36:48;;;;;;;8.73;6.70;;;;;;;;;;5061398;28;20028;-67
2021/09/25 01:39:13;;;;;;;8.32;6.15;;;;;;;;;;5060473;28;20025;-66
2021/09/25 01:41:38;;;;;;;9.13;6.20;;;;;;;;;;5061271;28;20033;-66
2021/09/25 01:44:03;;;;;;;7.53;5.97;;;;;;;;;;5056805;28;20071;-67
2021/09/25 01:46:29;;;;;;;8.32;6.40;;;;;;;;;;5059364;28;20117;-67
2021/09/25 01:48:54;;;;;;;7.43;5.55;;;;;;;;;;5058387;28;20056;-68
2021/09/25 01:51:19;;;;;;;8.23;6.03;;;;;;;;;;5057867;28;20024;-66
2021/09/25 01:53:44;;;;;;;8.93;6.13;;;;;;;;;;5060561;28;20025;-67
2021/09/25 01:56:12;;;;;;;8.85;6.43;;;;;;;;;;5055736;28;20453;-66
2021/09/25 01:58:37;;;;;;;9.82;6.18;;;;;;;;;;5058861;28;20047;-67
2021/09/25 02:01:03;;;;;;;7.63;6.18;;;;;;;;;;5057903;28;20543;-66
2021/09/25 02:03:28;;;;;;;8.50;5.95;;;;;;;;;;5057548;28;20151;-66
2021/09/25 02:05:54;;;;;;;10.18;6.75;;;;;;;;;;5063669;28;20115;-66
2021/09/25 02:08:19;;;;;;;8.68;6.25;;;;;;;;;;5060896;28;20016;-67
2021/09/25 02:10:44;;;;;;;9.88;6.90;;;;;;;;;;5063869;28;20129;-67
2021/09/25 02:13:09;;;;;;;9.13;6.18;;;;;;;;;;5062713;28;20349;-68
2021/09/25 02:15:34;;;;;;;11.38;6.43;;;;;;;;;;5059414;28;20037;-68
2021/09/25 02:18:00;;;;;;;10.40;6.55;;;;;;;;;;5060626;28;20044;-66
2021/09/25 02:20:25;;;;;;;9.13;6.53;;;;;;;;;;5056748;28;20020;-66
2021/09/25 02:22:51;;;;;;;8.00;6.22;;;;;;;;;;5056318;28;20075;-67
2021/09/25 02:25:16;;;;;;;8.45;6.43;;;;;;;;;;5055579;28;20120;-66
2021/09/25 02:27:41;;;;;;;9.02;6.05;;;;;;;;;;5051829;28;20483;-66
2021/09/25 02:30:13;;;;;;;9.45;6.28;;;;;;;;;;5052572;28;20021;-67
2021/09/25 02:32:39;;;;;;;8.20;5.97;;;;;;;;;;5053505;28;20082;-67
2021/09/25 02:35:04;;;;;;;9.00;6.63;;;;;;;;;;5057103;28;20499;-66
2021/09/25 02:37:30;;;;;;;8.63;6.32;;;;;;;;;;5053724;28;20044;-67
2021/09/25 02:39:55;;;;;;;7.80;6.07;;;;;;;;;;5066500;28;20581;-67
2021/09/25 02:42:20;;;;;;;7.93;6.00;;;;;;;;;;5056608;28;20032;-67
2021/09/25 02:44:45;;;;;;;8.95;6.32;;;;;;;;;;5064675;28;20020;-66
2021/09/25 02:47:10;;;;;;;7.70;6.07;;;;;;;;;;5056937;28;20172;-68
2021/09/25 02:49:35;;;;;;;8.30;6.30;;;;;;;;;;5057211;28;20427;-67
2021/09/25 02:52:01;;;;;;;9.73;6.30;;;;;;;;;;5055531;28;20124;-67
2021/09/25 02:54:26;;;;;;;9.07;6.47;;;;;;;;;;5056202;28;20043;-67
2021/09/25 02:56:51;;;;;;;9.55;5.68;;;;;;;;;;5059180;28;20177;-67
2021/09/25 02:59:16;;;;;;;8.20;5.80;;;;;;;;;;5057323;28;20025;-67
2021/09/25 03:01:41;;;;;;;9.32;6.35;;;;;;;;;;5058328;28;20454;-67
2021/09/25 03:04:07;;;;;;;8.00;6.03;;;;;;;;;;5066179;28;20047;-68
2021/09/25 03:06:32;;;;;;;6.68;5.35;;;;;;;;;;5053095;28;20107;-68
2021/09/25 03:08:57;;;;;;;7.43;5.65;;;;;;;;;;5055921;28;20111;-67
2021/09/25 03:11:22;;;;;;;9.70;6.68;;;;;;;;;;5050379;28;20408;-67
2021/09/25 03:13:47;;;;;;;8.57;5.93;;;;;;;;;;5061482;28;20067;-67
2021/09/25 03:16:13;;;;;;;7.88;5.75;;;;;;;;;;5059775;28;20051;-66
2021/09/25 03:18:38;;;;;;;8.32;6.30;;;;;;;;;;5055392;28;20024;-68
2021/09/25 03:21:03;;;;;;;8.93;6.47;;;;;;;;;;5058741;28;20028;-66
2021/09/25 03:23:28;;;;;;;8.52;5.80;;;;;;;;;;5059273;28;20024;-66
2021/09/25 03:25:53;;;;;;;9.63;6.85;;;;;;;;;;5066085;28;20074;-66
2021/09/25 03:28:19;;;;;;;11.27;6.50;;;;;;;;;;5059818;28;20017;-69
2021/09/25 03:30:44;;;;;;;6.97;5.57;;;;;;;;;;5052926;28;20024;-68
2021/09/25 03:33:09;;;;;;;9.68;6.40;;;;;;;;;;5054811;28;20021;-67
2021/09/25 03:35:34;;;;;;;10.07;6.68;;;;;;;;;;5056790;28;20388;-67
2021/09/25 03:38:02;;;;;;;9.10;6.20;;;;;;;;;;5055695;28;20024;-67
2021/09/25 03:40:28;;;;;;;7.82;5.72;;;;;;;;;;5054657;28;20027;-66
2021/09/25 03:42:53;;;;;;;8.13;5.70;;;;;;;;;;5065161;28;20037;-67
2021/09/25 03:45:19;;;;;;;8.70;6.07;;;;;;;;;;5060410;28;20395;-67
2021/09/25 03:47:44;;;;;;;8.60;6.18;;;;;;;;;;5054485;28;20448;-66
2021/09/25 03:50:10;;;;;;;7.85;6.07;;;;;;;;;;5058889;28;20480;-67
2021/09/25 03:52:35;;;;;;;7.20;5.35;;;;;;;;;;5054707;28;20049;-67
2021/09/25 03:55:00;;;;;;;9.13;5.40;;;;;;;;;;5052651;28;20023;-67
2021/09/25 03:57:25;;;;;;;7.72;5.40;;;;;;;;;;5062951;28;20537;-67
2021/09/25 03:59:50;;;;;;;7.82;5.90;;;;;;;;;;5053544;28;20024;-67
2021/09/25 04:02:16;;;;;;;7.82;5.30;;;;;;;;;;5061510;28;20028;-67
2021/09/25 04:04:41;;;;;;;7.95;5.72;;;;;;;;;;5052287;28;20041;-67
2021/09/25 04:07:06;;;;;;;8.88;6.20;;;;;;;;;;5061246;28;20025;-66
2021/09/25 04:09:31;;;;;;;8.43;6.13;;;;;;;;;;5061891;28;20372;-67
2021/09/25 04:11:56;;;;;;;7.10;5.90;;;;;;;;;;5052831;28;20033;-67
2021/09/25 04:14:23;;;;;;;7.53;6.10;;;;;;;;;;5048870;28;20056;-67
2021/09/25 04:16:48;;;;;;;7.65;5.80;;;;;;;;;;5052055;28;20044;-67
2021/09/25 04:19:13;;;;;;;9.65;6.20;;;;;;;;;;5052407;28;20029;-67
2021/09/25 04:21:38;;;;;;;8.13;6.43;;;;;;;;;;5060355;28;20472;-67
2021/09/25 04:24:04;;;;;;;8.07;6.50;;;;;;;;;;5053311;28;20021;-67
2021/09/25 04:26:29;;;;;;;8.57;5.95;;;;;;;;;;5062634;28;20035;-67
2021/09/25 04:28:56;;;;;;;7.93;6.13;;;;;;;;;;5058758;28;20393;-67
2021/09/25 04:31:22;;;;;;;7.97;6.30;;;;;;;;;;5053734;28;20040;-66
2021/09/25 04:33:47;;;;;;;8.90;6.40;;;;;;;;;;5060938;28;20021;-68
2021/09/25 04:36:12;;;;;;;8.93;6.28;;;;;;;;;;5053174;28;20165;-68
2021/09/25 04:38:37;;;;;;;10.43;7.15;;;;;;;;;;5063053;28;20353;-66
2021/09/25 04:41:02;;;;;;;8.85;6.07;;;;;;;;;;5054010;28;20081;-66
2021/09/25 04:43:28;;;;;;;7.80;5.50;;;;;;;;;;5059632;28;20388;-66
2021/09/25 04:45:53;;;;;;;7.65;5.80;;;;;;;;;;5052479;28;20029;-67
2021/09/25 04:48:18;;;;;;;7.78;5.80;;;;;;;;;;5056898;28;20100;-66
2021/09/25 04:50:43;;;;;;;8.40;6.32;;;;;;;;;;5057520;28;20473;-67
2021/09/25 04:53:10;;;;;;;7.80;6.28;;;;;;;;;;5058972;28;20040;-67
2021/09/25 04:55:35;;;;;;;8.13;6.65;;;;;;;;;;5051028;28;20094;-65
2021/09/25 04:58:00;;;;;;;9.05;6.03;;;;;;;;;;5049427;28;20064;-67
2021/09/25 05:00:25;;;;;;;7.65;6.20;;;;;;;;;;5055737;28;20032;-67
2021/09/25 05:02:51;;;;;;;10.10;6.25;;;;;;;;;;5056853;28;20084;-67
2021/09/25 05:05:16;;;;;;;8.95;6.63;;;;;;;;;;5056253;28;20451;-68
2021/09/25 05:07:41;;;;;;;8.50;6.20;;;;;;;;;;5062372;28;20529;-67
2021/09/25 05:10:06;;;;;;;7.70;6.30;;;;;;;;;;5056963;28;20086;-67
2021/09/25 05:12:32;;;;;;;7.85;6.18;;;;;;;;;;5053775;28;20297;-68
2021/09/25 05:14:57;;;;;;;7.18;5.45;;;;;;;;;;5057094;28;20049;-67
2021/09/25 05:17:22;;;;;;;9.15;6.55;;;;;;;;;;5051799;28;20254;-67
2021/09/25 05:19:48;;;;;;;9.00;6.22;;;;;;;;;;5053065;28;20028;-65
2021/09/25 05:22:13;;;;;;;8.38;6.03;;;;;;;;;;5063145;28;20112;-67
2021/09/25 05:24:38;;;;;;;9.40;5.80;;;;;;;;;;5057349;28;20023;-67
2021/09/25 05:27:04;;;;;;;7.65;5.82;;;;;;;;;;5055964;28;20500;-67
2021/09/25 05:29:29;;;;;;;8.55;5.80;;;;;;;;;;5054405;28;20029;-67
2021/09/25 05:31:58;;;;;;;7.07;5.68;;;;;;;;;;5056824;28;20458;-67
2021/09/25 05:34:23;;;;;;;7.75;5.70;;;;;;;;;;5056047;28;20100;-67
2021/09/25 05:36:48;;;;;;;8.02;5.25;;;;;;;;;;5053457;28;20116;-67
2021/09/25 05:39:13;;;;;;;7.60;5.38;;;;;;;;;;5052099;28;20016;-67
2021/09/25 05:41:38;;;;;;;7.85;5.30;;;;;;;;;;5054547;28;20070;-66
2021/09/25 05:44:04;;;;;;;6.43;4.93;;;;;;;;;;5055351;28;20056;-68
2021/09/25 05:46:29;;;;;;;7.22;5.50;;;;;;;;;;5057800;28;20028;-67
2021/09/25 05:48:54;;;;;;;7.53;4.65;;;;;;;;;;5053592;28;20104;-67
2021/09/25 05:51:19;;;;;;;9.27;4.60;;;;;;;;;;5053020;28;20124;-66
2021/09/25 05:53:45;;;;;;;6.22;4.50;;;;;;;;;;5051717;28;20515;-67
2021/09/25 05:56:10;;;;;;;6.15;4.68;;;;;;;;;;5060702;28;20040;-67
2021/09/25 05:58:35;;;;;;;6.30;4.55;;;;;;;;;;5055602;28;20012;-67
2021/09/25 06:01:00;;;;;;;6.07;4.53;;;;;;;;;;5056333;28;20064;-68
2021/09/25 06:03:25;;;;;;;7.10;4.67;;;;;;;;;;5060574;28;20270;-67
2021/09/25 06:05:50;;;;;;;7.30;4.83;;;;;;;;;;5056226;28;20354;-67
2021/09/25 06:08:16;;;;;;;7.05;5.07;;;;;;;;;;5056916;28;20635;-67
2021/09/25 06:10:41;;;;;;;7.00;4.28;;;;;;;;;;5052410;28;20083;-67
2021/09/25 06:13:07;;;;;;;6.28;4.80;;;;;;;;;;5056690;28;20087;-67
2021/09/25 06:15:33;;;;;;;7.75;4.40;;;;;;;;;;5063546;28;20033;-67
2021/09/25 06:17:59;;;;;;;6.65;4.72;;;;;;;;;;5061546;28;20024;-68
2021/09/25 06:20:25;;;;;;;6.72;4.68;;;;;;;;;;5062214;28;20422;-67
2021/09/25 06:22:50;;;;;;;7.50;4.88;;;;;;;;;;5060123;28;20074;-67
2021/09/25 06:25:15;;;;;;;6.93;5.13;;;;;;;;;;5060784;28;20016;-68
2021/09/25 06:27:40;;;;;;;6.57;4.85;;;;;;;;;;5060121;28;20086;-67
2021/09/25 06:30:07;;;;;;;6.15;4.43;;;;;;;;;;5060433;28;20821;-67
2021/09/25 06:32:32;;;;;;;7.20;4.40;;;;;;;;;;5060607;28;20024;-68
2021/09/25 06:34:57;;;;;;;6.85;4.30;;;;;;;;;;5053643;28;20439;-67
2021/09/25 06:37:22;;;;;;;7.43;4.53;;;;;;;;;;5056395;28;20608;-68
2021/09/25 06:39:47;;;;;;;7.32;4.20;;;;;;;;;;5060706;28;20425;-68
2021/09/25 06:42:13;;;;;;;6.15;4.53;;;;;;;;;;5051551;28;20021;-67
2021/09/25 06:44:38;;;;;;;6.40;4.73;;;;;;;;;;5055884;28;20491;-68
2021/09/25 06:47:03;;;;;;;9.70;4.53;;;;;;;;;;5061621;28;20307;-68
2021/09/25 06:49:28;;;;;;;6.30;4.00;;;;;;;;;;5062080;28;20539;-66
2021/09/25 06:51:53;;;;;;;6.10;3.63;;;;;;;;;;5053620;28;20045;-67
2021/09/25 06:54:18;;;;;;;6.70;4.50;;;;;;;;;;5056707;28;20035;-67
2021/09/25 06:56:44;;;;;;;5.60;4.20;;;;;;;;;;5054051;28;20056;-68
2021/09/25 06:59:09;;;;;;;5.57;4.17;;;;;;;;;;5056519;28;20075;-66
2021/09/25 07:01:34;;;;;;;6.30;4.30;;;;;;;;;;5054916;28;20282;-67
2021/09/25 07:03:59;;;;;;;5.78;4.22;;;;;;;;;;5051361;28;20315;-67
2021/09/25 07:06:25;;;;;;;6.72;4.70;;;;;;;;;;5055508;28;20040;-67
2021/09/25 07:08:50;;;;;;;7.07;4.50;;;;;;;;;;5062136;28;20116;-69
2021/09/25 07:11:16;;;;;;;6.73;4.60;;;;;;;;;;5059422;28;20094;-67
2021/09/25 07:13:42;;;;;;;7.32;4.07;;;;;;;;;;5061911;28;20267;-68
2021/09/25 07:16:08;;;;;;;5.13;4.05;;;;;;;;;;5055727;28;20032;-66
2021/09/25 07:18:33;;;;;;;5.90;4.25;;;;;;;;;;5051691;28;20032;-67
2021/09/25 07:20:59;;;;;;;6.57;4.80;;;;;;;;;;5055221;28;20024;-67
2021/09/25 07:23:24;;;;;;;6.90;4.30;;;;;;;;;;5058526;28;20029;-68
2021/09/25 07:25:49;;;;;;;7.50;4.32;;;;;;;;;;5058654;28;20282;-67
2021/09/25 07:28:14;;;;;;;8.23;4.53;;;;;;;;;;5057815;28;20162;-67
2021/09/25 07:30:41;;;;;;;7.00;4.38;;;;;;;;;;5054437;28;20182;-62
2021/09/25 07:33:06;;;;;;;6.90;4.10;;;;;;;;;;5066951;28;20107;-62
2021/09/25 07:35:34;;;;;;;5.80;4.32;;;;;;;;;;5056900;28;20163;-61
2021/09/25 07:37:59;;;;;;;8.20;4.30;;;;;;;;;;5060283;28;20024;-61
2021/09/25 07:40:25;;;;;;;8.48;4.40;;;;;;;;;;5052610;28;20032;-61
2021/09/25 07:42:50;;;;;;;7.53;4.53;;;;;;;;;;5056814;28;20020;-62
2021/09/25 07:45:15;;;;;;;7.57;4.22;;;;;;;;;;5054283;28;20017;-61
2021/09/25 07:47:40;;;;;;;11.80;4.20;;;;;;;;;;5058439;28;20029;-61
2021/09/25 07:50:06;;;;;;;5.20;4.15;;;;;;;;;;5055738;28;20168;-62
2021/09/25 07:52:32;;;;;;;8.70;4.18;;;;;;;;;;5055452;28;20083;-60
2021/09/25 07:54:58;;;;;;;5.75;3.90;;;;;;;;;;5055444;28;20016;-57
2021/09/25 07:57:23;;;;;;;5.90;3.92;;;;;;;;;;5056271;28;20044;-59
2021/09/25 07:59:48;;;;;;;5.73;3.90;;;;;;;;;;5057711;28;20025;-59
2021/09/25 08:02:13;;;;;;;5.53;3.60;;;;;;;;;;5056640;28;20686;-58
2021/09/25 08:04:38;;;;;;;6.30;3.50;;;;;;;;;;5056192;28;20303;-58
2021/09/25 08:07:04;;;;;;;6.50;3.60;;;;;;;;;;5060039;28;20765;-58
2021/09/25 08:09:30;;;;;;;5.13;3.60;;;;;;;;;;5057523;28;20270;-59
2021/09/25 08:11:55;;;;;;;7.68;4.13;;;;;;;;;;5060070;28;20412;-59
2021/09/25 08:14:20;;;;;;;5.70;3.72;;;;;;;;;;5058862;28;20016;-59
2021/09/25 08:16:45;;;;;;;6.17;3.90;;;;;;;;;;5059703;28;20412;-58
2021/09/25 08:19:10;;;;;;;5.57;3.63;;;;;;;;;;5053312;28;20256;-59
2021/09/25 08:21:35;;;;;;;4.80;3.53;;;;;;;;;;5053130;28;20839;-59
2021/09/25 08:24:00;;;;;;;4.67;3.40;;;;;;;;;;5058783;28;20287;-59
2021/09/25 08:26:26;;;;;;;5.30;3.50;;;;;;;;;;5056156;28;20298;-59
2021/09/25 08:28:51;;;;;;;4.50;3.30;;;;;;;;;;5055306;28;20280;-60
2021/09/25 08:31:16;;;;;;;7.95;3.60;;;;;;;;;;5057126;28;20025;-59
2021/09/25 08:33:42;;;;;;;6.85;3.65;;;;;;;;;;5056937;28;20400;-60
2021/09/25 08:36:07;;;;;;;4.78;3.80;;;;;;;;;;5055646;28;20083;-59
2021/09/25 08:38:32;;;;;;;6.57;3.63;;;;;;;;;;5049474;28;20468;-59
2021/09/25 08:40:59;;;;;;;3.95;3.30;;;;;;;;;;5053519;28;20020;-59
2021/09/25 08:43:24;;;;;;;5.22;3.67;;;;;;;;;;5051079;28;20468;-59
2021/09/25 08:46:00;;;;;;;7.38;3.97;;;;;;;;;;5056588;28;20020;-59
2021/09/25 08:48:25;;;;;;;5.93;3.45;;;;;;;;;;5051011;28;20093;-59
2021/09/25 08:50:50;;;;;;;4.63;3.83;;;;;;;;;;5060655;28;20917;-59
2021/09/25 08:53:16;;;;;;;6.13;3.95;;;;;;;;;;5053450;28;20044;-59
2021/09/25 08:55:41;;;;;;;6.22;3.95;;;;;;;;;;5052780;28;20105;-60
2021/09/25 08:58:09;;;;;;;5.90;3.97;;;;;;;;;;5052828;28;20107;-60
2021/09/25 09:00:47;;;;;;;6.45;4.10;;;;;;;;;;5053688;28;20032;-60
2021/09/25 09:03:16;;;;;;;6.00;3.72;;;;;;;;;;5059689;28;20017;-59
2021/09/25 09:05:41;;;;;;;7.93;4.10;;;;;;;;;;5052147;28;20056;-59
2021/09/25 09:08:07;;;;;;;5.97;4.00;;;;;;;;;;5062485;28;20463;-59
2021/09/25 09:10:33;;;;;;;6.25;4.28;;;;;;;;;;5064830;28;20488;-60
2021/09/25 09:12:58;;;;;;;5.60;4.22;;;;;;;;;;5054104;28;20025;-59
2021/09/25 09:15:29;;;;;;;4.40;3.70;;;;;;;;;;5053058;28;20017;-59
2021/09/25 09:17:54;;;;;;;6.53;3.58;;;;;;;;;;5056984;28;20044;-60
2021/09/25 09:20:20;;;;;;;4.80;3.57;;;;;;;;;;5053567;28;20012;-59
2021/09/25 09:22:45;;;;;;;5.37;3.77;;;;;;;;;;5052288;28;20267;-58
2021/09/25 09:25:10;;;;;;;5.70;3.75;;;;;;;;;;5054655;28;20318;-60
2021/09/25 09:27:43;;;;;;;7.05;3.72;;;;;;;;;;5047594;28;20040;-59
2021/09/25 09:30:09;;;;;;;5.00;3.40;;;;;;;;;;5055533;28;20028;-58
2021/09/25 09:32:38;;;;;;;5.88;3.60;;;;;;;;;;5065460;28;20055;-58
2021/09/25 09:35:29;;;;;;;5.63;3.55;;;;;;;;;;5062035;28;20444;-62
2021/09/25 09:37:56;;;;;;;6.43;3.47;;;;;;;;;;5057273;28;20041;-59
2021/09/25 09:40:21;;;;;;;5.13;3.75;;;;;;;;;;5065920;28;20094;-58
2021/09/25 09:42:47;;;;;;;6.03;4.03;;;;;;;;;;5069108;28;20021;-59
2021/09/25 09:45:23;;;;;;;7.82;3.47;;;;;;;;;;5063667;28;20074;-57
2021/09/25 09:47:48;;;;;;;4.85;4.00;;;;;;;;;;5053546;28;20538;-58
2021/09/25 09:50:14;;;;;;;4.93;3.30;;;;;;;;;;5060797;28;20058;-60
2021/09/25 09:52:39;;;;;;;5.88;3.88;;;;;;;;;;5051942;28;20303;-60
2021/09/25 09:55:06;;;;;;;5.13;3.85;;;;;;;;;;5055458;28;20020;-59
2021/09/25 09:57:33;;;;;;;4.90;3.85;;;;;;;;;;5055188;28;20047;-58
2021/09/25 09:59:59;;;;;;;4.22;3.67;;;;;;;;;;5056866;28;20017;-58
2021/09/25 10:02:24;;;;;;;5.32;4.18;;;;;;;;;;5068934;28;20072;-59
2021/09/25 10:04:49;;;;;;;5.00;3.63;;;;;;;;;;5059290;28;20020;-59
2021/09/25 10:07:15;;;;;;;4.33;3.80;;;;;;;;;;5068329;28;20359;-59
2021/09/25 10:09:40;;;;;;;4.80;3.80;;;;;;;;;;5051315;28;20316;-59
2021/09/25 10:12:24;;;;;;;5.95;3.63;;;;;;;;;;5056406;28;20029;-58
2021/09/25 10:14:50;;;;;;;4.82;3.78;;;;;;;;;;5070812;28;20380;-61
2021/09/25 10:17:16;;;;;;;3.88;3.42;;;;;;;;;;5058789;28;20045;-59
2021/09/25 10:19:42;;;;;;;6.22;3.25;;;;;;;;;;5058940;28;20012;-59
2021/09/25 10:22:13;;;;;;;4.15;2.80;;;;;;;;;;5059609;28;20054;-59
2021/09/25 10:24:42;;;;;;;5.68;3.03;;;;;;;;;;5054386;28;20107;-59
2021/09/25 10:27:07;;;;;;;3.88;3.15;;;;;;;;;;5051552;28;20021;-60
2021/09/25 10:29:33;;;;;;;7.25;3.10;;;;;;;;;;5060170;28;20033;-60
2021/09/25 10:32:15;;;;;;;3.75;3.22;;;;;;;;;;5053719;28;20028;-60
2021/09/25 10:34:51;;;;;;;3.97;3.08;;;;;;;;;;5069889;28;20028;-59
2021/09/25 10:37:18;;;;;;;3.97;3.38;;;;;;;;;;5053670;28;20048;-59
2021/09/25 10:39:53;;;;;;;5.55;3.60;;;;;;;;;;5060237;28;20083;-58
2021/09/25 10:42:18;;;;;;;4.63;3.40;;;;;;;;;;5052077;28;20024;-60
2021/09/25 10:44:48;;;;;;;3.80;2.90;;;;;;;;;;5069938;28;20055;-60
2021/09/25 10:47:18;;;;;;;5.68;3.55;;;;;;;;;;5053889;28;20284;-60
2021/09/25 10:49:51;;;;;;;7.97;3.40;;;;;;;;;;5063282;28;20036;-60
2021/09/25 10:52:20;;;;;;;6.70;3.58;;;;;;;;;;5065867;28;20350;-60
2021/09/25 10:54:45;;;;;;;3.67;2.97;;;;;;;;;;5066978;28;20090;-61
2021/09/25 10:57:16;;;;;;;4.35;3.15;;;;;;;;;;5058319;28;20108;-59
2021/09/25 10:59:59;;;;;;;3.78;2.95;;;;;;;;;;5062474;28;20539;-59
2021/09/25 11:02:40;;;;;;;3.65;2.97;;;;;;;;;;5051234;28;20032;-59
2021/09/25 11:05:05;;;;;;;4.40;3.10;;;;;;;;;;5056680;28;20013;-59
2021/09/25 11:07:37;;;;;;;4.47;3.50;;;;;;;;;;5058759;28;20021;-59
2021/09/25 11:10:02;;;;;;;3.88;3.08;;;;;;;;;;5058310;28;20101;-58
2021/09/25 11:12:41;;;;;;;5.03;2.95;;;;;;;;;;5050966;28;20527;-60
2021/09/25 11:15:26;;;;;;;3.42;3.10;;;;;;;;;;5061521;28;20438;-59
2021/09/25 11:18:12;;;;;;;4.32;3.00;;;;;;;;;;5051998;28;20476;-59
2021/09/25 11:20:37;;;;;;;3.50;2.90;;;;;;;;;;5054061;28;20218;-60
2021/09/25 11:23:02;;;;;;;5.73;3.30;;;;;;;;;;5056387;28;20229;-59
2021/09/25 11:25:29;;;;;;;3.97;2.67;;;;;;;;;;5056154;28;20275;-59
2021/09/25 11:27:56;;;;;;;4.85;2.75;;;;;;;;;;5060249;28;20116;-61
2021/09/25 11:30:24;;;;;;;5.75;2.85;;;;;;;;;;5054295;28;20114;-61
2021/09/25 11:32:50;;;;;;;3.75;2.80;;;;;;;;;;5055711;28;20512;-60
2021/09/25 11:35:22;;;;;;;4.30;2.70;;;;;;;;;;5059506;28;20020;-59
2021/09/25 11:38:03;;;;;;;3.75;3.10;;;;;;;;;;5057432;28;20647;-60
2021/09/25 11:40:30;;;;;;;3.83;3.13;;;;;;;;;;5051035;28;20036;-59
2021/09/25 11:43:15;;;;;;;5.30;2.90;;;;;;;;;;5050208;28;20103;-59
2021/09/25 11:45:42;;;;;;;4.28;2.60;;;;;;;;;;5049767;28;20021;-58
2021/09/25 11:48:08;;;;;;;3.58;2.97;;;;;;;;;;5052614;28;20029;-64
2021/09/25 11:50:35;;;;;;;4.45;3.10;;;;;;;;;;5053920;28;20031;-58
2021/09/25 11:53:02;;;;;;;5.60;2.97;;;;;;;;;;5062449;28;20479;-63
2021/09/25 11:55:28;;;;;;;4.18;2.72;;;;;;;;;;5054667;28;20423;-62
2021/09/25 11:57:57;;;;;;;8.20;3.78;;;;;;;;;;5060965;28;20905;-59
2021/09/25 12:00:25;;;;;;;4.85;2.72;;;;;;;;;;5059871;28;20021;-58
2021/09/25 12:02:51;;;;;;;4.00;2.95;;;;;;;;;;5057449;28;20016;-60
2021/09/25 12:05:24;;;;;;;5.63;3.40;;;;;;;;;;5052531;28;20094;-61
2021/09/25 12:07:49;;;;;;;4.38;3.42;;;;;;;;;;5052526;28;20078;-58
2021/09/25 12:10:16;;;;;;;3.80;2.97;;;;;;;;;;5059502;28;20021;-59
2021/09/25 12:12:41;;;;;;;4.90;3.30;;;;;;;;;;5063296;28;20023;-62
2021/09/25 12:15:08;;;;;;;3.80;2.92;;;;;;;;;;5059773;28;20033;-61
2021/09/25 12:17:33;;;;;;;6.43;3.15;;;;;;;;;;5048497;28;20177;-60
2021/09/25 12:20:13;;;;;;;3.20;2.53;;;;;;;;;;5054805;28;20104;-61
2021/09/25 12:22:42;;;;;;;3.95;2.63;;;;;;;;;;5054152;28;20408;-61
2021/09/25 12:25:09;;;;;;;3.28;2.60;;;;;;;;;;5052578;28;20021;-61
2021/09/25 12:27:41;;;;;;;3.95;3.10;;;;;;;;;;5049372;28;20025;-59
2021/09/25 12:30:07;;;;;;;5.22;2.90;;;;;;;;;;5064015;28;20028;-60
2021/09/25 12:32:32;;;;;;;4.85;2.75;;;;;;;;;;5054088;28;20383;-60
2021/09/25 12:34:57;;;;;;;4.38;2.65;;;;;;;;;;5054832;28;20025;-61
2021/09/25 12:37:22;;;;;;;3.40;2.93;;;;;;;;;;5048662;28;20136;-62
2021/09/25 12:39:50;;;;;;;5.07;2.80;;;;;;;;;;5061015;28;20016;-61
2021/09/25 12:42:22;;;;;;;3.72;2.72;;;;;;;;;;5054198;28;20350;-62
2021/09/25 12:44:51;;;;;;;4.38;2.80;;;;;;;;;;5049875;28;20025;-61
2021/09/25 12:47:16;;;;;;;4.13;2.50;;;;;;;;;;5053785;28;20482;-62
2021/09/25 12:49:41;;;;;;;4.82;3.83;;;;;;;;;;5064648;28;20111;-61
2021/09/25 12:52:07;;;;;;;7.32;3.90;;;;;;;;;;5051937;28;20045;-62
2021/09/25 12:54:33;;;;;;;5.93;3.17;;;;;;;;;;5051086;28;20029;-59
2021/09/25 12:57:00;;;;;;;4.47;3.55;;;;;;;;;;5049832;28;20033;-59
2021/09/25 12:59:27;;;;;;;6.40;3.13;;;;;;;;;;5048555;28;20116;-59
2021/09/25 13:01:53;;;;;;;2.88;2.47;;;;;;;;;;5052880;28;20373;-60
2021/09/25 13:04:26;;;;;;;3.58;2.42;;;;;;;;;;5062648;28;20024;-61
2021/09/25 13:06:52;;;;;;;4.53;2.60;;;;;;;;;;5056190;28;20079;-61
2021/09/25 13:09:17;;;;;;;3.33;2.50;;;;;;;;;;5052032;28;20025;-60
2021/09/25 13:12:01;;;;;;;3.80;2.33;;;;;;;;;;5062507;28;20301;-60
2021/09/25 13:14:29;;;;;;;3.22;2.47;;;;;;;;;;5052667;28;20078;-60
2021/09/25 13:16:56;;;;;;;3.05;2.20;;;;;;;;;;5052369;28;20386;-61
2021/09/25 13:19:21;;;;;;;4.15;2.80;;;;;;;;;;5062697;28;20411;-62
2021/09/25 13:21:46;;;;;;;3.10;2.30;;;;;;;;;;5064906;28;20076;-59
2021/09/25 13:24:11;;;;;;;3.97;2.90;;;;;;;;;;5057792;28;20286;-61
2021/09/25 13:26:37;;;;;;;4.90;2.58;;;;;;;;;;5061145;28;20678;-62
2021/09/25 13:29:05;;;;;;;2.92;2.35;;;;;;;;;;5052764;28;20022;-62
2021/09/25 13:31:31;;;;;;;3.15;2.40;;;;;;;;;;5053066;28;20472;-60
2021/09/25 13:33:57;;;;;;;4.65;2.50;;;;;;;;;;5059667;28;20032;-59
2021/09/25 13:36:23;;;;;;;2.70;2.38;;;;;;;;;;5051813;28;20033;-59
2021/09/25 13:38:49;;;;;;;3.25;2.40;;;;;;;;;;5058234;28;20028;-63
2021/09/25 13:41:14;;;;;;;3.28;2.20;;;;;;;;;;5060873;28;20108;-63
2021/09/25 13:43:39;;;;;;;3.53;2.72;;;;;;;;;;5059842;28;20104;-60
2021/09/25 13:46:05;;;;;;;3.63;2.33;;;;;;;;;;5065267;28;20074;-59
2021/09/25 13:48:30;;;;;;;3.30;2.28;;;;;;;;;;5061201;28;20017;-60
2021/09/25 13:50:55;;;;;;;5.88;2.38;;;;;;;;;;5062869;28;20024;-60
2021/09/25 13:53:21;;;;;;;3.45;2.28;;;;;;;;;;5059991;28;20071;-59
2021/09/25 13:55:46;;;;;;;2.13;1.92;;;;;;;;;;5058803;28;20053;-60
2021/09/25 13:58:11;;;;;;;3.47;2.03;;;;;;;;;;5062173;28;20033;-60
2021/09/25 14:00:40;;;;;;;3.30;2.50;;;;;;;;;;5059966;28;20450;-60
2021/09/25 14:03:05;;;;;;;2.40;1.80;;;;;;;;;;5059862;28;20032;-59
2021/09/25 14:05:30;;;;;;;5.27;2.63;;;;;;;;;;5057130;28;20024;-60
2021/09/25 14:07:55;;;;;;;3.30;2.10;;;;;;;;;;5051422;28;20369;-60
2021/09/25 14:10:20;;;;;;;2.73;2.10;;;;;;;;;;5054822;28;20108;-60
2021/09/25 14:12:46;;;;;;;4.77;2.10;;;;;;;;;;5057332;28;20281;-60
2021/09/25 14:15:11;;;;;;;3.57;2.30;;;;;;;;;;5062201;28;20017;-60
2021/09/25 14:17:36;;;;;;;5.57;2.37;;;;;;;;;;5063977;28;20322;-61
2021/09/25 14:20:03;;;;;;;3.27;2.30;;;;;;;;;;5058355;28;20627;-59
2021/09/25 14:22:28;;;;;;;5.18;2.10;;;;;;;;;;5051346;28;20260;-61
2021/09/25 14:24:54;;;;;;;7.70;2.07;;;;;;;;;;5055578;28;20025;-59
2021/09/25 14:27:19;;;;;;;2.43;2.10;;;;;;;;;;5063742;28;20279;-59
2021/09/25 14:29:44;;;;;;;4.97;1.93;;;;;;;;;;5060831;28;20395;-62
